Time;durP1;ratioP1;P1;durP2;ratioP2;P2;SDS_P1;SDS_P2;PMS_P1;PMS_P2;Temp;Humidity;BMP_temperature;BMP_pressure;BME280_temperature;BME280_humidity;BME280_pressure;Samples;Min_cycle;Max_cycle;Signal;HPM_P1;HPM_P2
2023/06/15 00:00:44;;;;;;;8.88;5.25;;;;;;;16.82;52.65;100660.47;10192791;29;20050;-76
2023/06/15 00:05:47;;;;;;;6.43;4.07;;;;;;;17.01;52.32;100662.97;10189248;29;20626;-76
2023/06/15 00:10:50;;;;;;;5.03;4.40;;;;;;;17.13;52.48;100663.56;10189682;29;20048;-76
2023/06/15 00:15:54;;;;;;;8.73;5.07;;;;;;;17.23;52.32;100660.75;10189963;29;20099;-76
2023/06/15 00:20:57;;;;;;;5.72;4.05;;;;;;;17.10;52.31;100658.44;10188730;29;20071;-76
2023/06/15 00:26:00;;;;;;;6.78;4.53;;;;;;;17.02;52.65;100659.22;10189961;29;20051;-76
2023/06/15 00:31:04;;;;;;;11.23;5.63;;;;;;;17.06;53.16;100656.19;10187445;29;20047;-76
2023/06/15 00:36:12;;;;;;;6.15;5.55;;;;;;;17.06;53.51;100661.63;10190397;29;20036;-76
2023/06/15 00:41:15;;;;;;;7.50;4.60;;;;;;;16.93;53.19;100664.78;10197432;29;20060;-76
2023/06/15 00:46:20;;;;;;;8.15;4.97;;;;;;;16.81;53.77;100661.44;10195596;29;20047;-76
2023/06/15 00:51:23;;;;;;;6.22;4.88;;;;;;;16.54;53.87;100666.00;10187940;29;20527;-76
2023/06/15 00:56:29;;;;;;;9.35;4.80;;;;;;;16.41;54.41;100662.84;10188499;29;20059;-76
2023/06/15 01:01:33;;;;;;;6.25;4.63;;;;;;;16.31;54.49;100673.75;10184237;29;20086;-77
2023/06/15 01:06:41;;;;;;;6.78;5.13;;;;;;;16.14;55.20;100671.84;10194833;28;20075;-76
2023/06/15 01:11:46;;;;;;;7.68;4.70;;;;;;;16.05;55.91;100665.50;10183868;29;20536;-75
2023/06/15 01:16:54;;;;;;;9.10;5.35;;;;;;;16.01;56.00;100664.09;10183367;29;20040;-76
2023/06/15 01:22:07;;;;;;;7.30;5.15;;;;;;;16.06;55.96;100664.50;10201338;29;20103;-77
2023/06/15 01:27:13;;;;;;;7.22;5.25;;;;;;;16.11;55.71;100662.19;10184015;29;20415;-76
2023/06/15 01:32:16;;;;;;;10.85;6.15;;;;;;;15.60;56.97;100666.34;10183507;29;20055;-76
2023/06/15 01:37:19;;;;;;;7.88;5.57;;;;;;;15.31;57.54;100671.84;10182929;29;20504;-76
2023/06/15 01:42:24;;;;;;;7.95;5.32;;;;;;;15.52;57.51;100668.94;10180467;29;20059;-76
2023/06/15 01:47:27;;;;;;;11.02;6.60;;;;;;;15.60;57.31;100669.03;10181490;29;20044;-76
2023/06/15 01:52:30;;;;;;;7.95;5.68;;;;;;;15.19;58.36;100675.72;10182021;29;20145;-76
2023/06/15 01:57:37;;;;;;;8.20;6.88;;;;;;;15.14;58.69;100667.19;10182362;29;20044;-76
2023/06/15 02:02:41;;;;;;;7.53;5.95;;;;;;;15.20;58.86;100662.06;10195721;29;20460;-76
2023/06/15 02:07:44;;;;;;;7.93;6.50;;;;;;;15.11;59.08;100662.97;10190326;29;20047;-76
2023/06/15 02:12:49;;;;;;;8.57;6.45;;;;;;;15.11;59.34;100657.56;10186341;29;20511;-76
2023/06/15 02:17:58;;;;;;;9.70;5.95;;;;;;;15.17;59.19;100664.22;10183094;29;20512;-76
2023/06/15 02:23:02;;;;;;;10.75;6.60;;;;;;;15.02;59.79;100661.97;10184598;29;20044;-76
2023/06/15 02:28:06;;;;;;;8.73;6.22;;;;;;;14.88;60.58;100662.44;10187741;29;20044;-76
2023/06/15 02:33:12;;;;;;;7.18;6.45;;;;;;;14.61;61.19;100663.19;10182588;29;20072;-76
2023/06/15 02:38:15;;;;;;;10.73;6.65;;;;;;;14.59;61.50;100665.22;10181918;29;20622;-76
2023/06/15 02:43:20;;;;;;;8.00;6.45;;;;;;;14.34;62.37;100672.84;10187857;29;20048;-76
2023/06/15 02:48:23;;;;;;;11.55;6.88;;;;;;;14.39;62.44;100669.75;10177939;29;20052;-76
2023/06/15 02:53:26;;;;;;;6.95;6.25;;;;;;;14.55;62.06;100675.44;10178256;29;20122;-76
2023/06/15 02:58:34;;;;;;;13.75;6.35;;;;;;;14.45;61.71;100679.13;10187358;29;20049;-76
2023/06/15 03:03:40;;;;;;;5.97;5.38;;;;;;;14.52;61.85;100680.28;10181059;29;20140;-76
2023/06/15 03:08:44;;;;;;;9.55;5.55;;;;;;;14.72;61.14;100678.41;10184790;29;20055;-76
2023/06/15 03:13:58;;;;;;;7.85;5.63;;;;;;;14.70;60.96;100673.16;10183552;29;20166;-76
2023/06/15 03:19:07;;;;;;;10.23;6.80;;;;;;;14.67;61.26;100684.22;10186759;29;20059;-76
2023/06/15 03:24:10;;;;;;;7.75;6.85;;;;;;;14.62;61.59;100677.56;10194147;29;20042;-76
2023/06/15 03:29:16;;;;;;;7.57;6.72;;;;;;;14.70;61.22;100683.09;10192954;29;20066;-76
2023/06/15 03:34:20;;;;;;;9.88;6.60;;;;;;;14.75;61.36;100683.53;10193963;29;20060;-76
2023/06/15 03:39:23;;;;;;;14.50;6.57;;;;;;;14.74;61.37;100685.38;10194672;29;20054;-76
2023/06/15 03:44:27;;;;;;;9.63;6.57;;;;;;;14.92;61.02;100684.63;10194487;29;20127;-76
2023/06/15 03:49:30;;;;;;;8.45;6.00;;;;;;;14.63;61.48;100688.25;10190313;29;20056;-76
2023/06/15 03:54:33;;;;;;;8.38;6.28;;;;;;;14.12;62.96;100705.53;10187953;29;20052;-76
2023/06/15 03:59:41;;;;;;;12.27;6.88;;;;;;;14.27;63.26;100703.28;10203945;29;20778;-76
2023/06/15 04:04:44;;;;;;;10.32;6.85;;;;;;;14.47;62.65;100705.03;10186794;29;20052;-75
2023/06/15 04:09:47;;;;;;;12.60;8.13;;;;;;;14.10;63.11;100712.94;10186068;29;20048;-76
2023/06/15 04:14:52;;;;;;;12.35;8.13;;;;;;;13.81;64.72;100721.78;10194714;29;20220;-76
2023/06/15 04:19:55;;;;;;;10.52;7.82;;;;;;;14.39;63.77;100715.69;10195420;29;20079;-75
2023/06/15 04:24:58;;;;;;;8.68;7.80;;;;;;;14.87;62.22;100712.13;10183820;29;20138;-76
2023/06/15 04:30:03;;;;;;;10.45;8.65;;;;;;;15.10;61.65;100712.66;10184747;29;20040;-76
2023/06/15 04:35:07;;;;;;;10.43;6.80;;;;;;;15.36;61.13;100709.31;10200426;29;20044;-76
2023/06/15 04:40:12;;;;;;;10.65;7.43;;;;;;;15.47;60.72;100707.31;10201976;29;20112;-76
2023/06/15 04:45:17;;;;;;;10.27;7.97;;;;;;;15.53;61.08;100710.41;10203055;29;20080;-75
2023/06/15 04:50:21;;;;;;;10.98;7.63;;;;;;;15.61;60.88;100726.78;10210452;29;20067;-76
2023/06/15 04:55:24;;;;;;;10.80;6.80;;;;;;;15.43;61.22;100724.81;10190404;29;20082;-76
2023/06/15 05:00:29;;;;;;;8.38;7.32;;;;;;;15.04;62.41;100735.72;10186052;29;20074;-76
2023/06/15 05:05:37;;;;;;;11.82;8.60;;;;;;;15.27;63.06;100738.94;10206532;29;20061;-76
2023/06/15 05:10:40;;;;;;;10.02;7.80;;;;;;;15.81;60.37;100744.63;10193455;29;20106;-76
2023/06/15 05:15:52;;;;;;;11.05;7.38;;;;;;;16.13;58.96;100732.50;10186570;29;20107;-76
2023/06/15 05:21:01;;;;;;;10.05;7.78;;;;;;;16.09;58.36;100742.75;10189987;29;20048;-76
2023/06/15 05:26:08;;;;;;;10.95;8.60;;;;;;;16.07;58.47;100733.97;10188616;29;20054;-75
2023/06/15 05:31:32;;;;;;;16.33;8.57;;;;;;;16.09;59.28;100734.63;10188722;29;20048;-76
2023/06/15 05:36:35;;;;;;;15.07;8.07;;;;;;;16.10;59.07;100744.50;10186704;29;20051;-76
2023/06/15 05:41:58;;;;;;;13.77;8.57;;;;;;;16.02;59.09;100741.69;10194065;29;20047;-76
2023/06/15 05:47:03;;;;;;;10.30;8.52;;;;;;;16.00;59.98;100738.25;10192901;29;20036;-76
2023/06/15 05:52:08;;;;;;;11.80;9.40;;;;;;;16.08;59.85;100743.78;10187548;29;20047;-76
2023/06/15 05:57:13;;;;;;;9.95;7.80;;;;;;;16.05;59.77;100756.78;10186068;29;20504;-76
2023/06/15 06:02:19;;;;;;;12.30;7.70;;;;;;;16.01;60.56;100749.94;10193456;29;20153;-76
2023/06/15 06:07:22;;;;;;;12.23;8.65;;;;;;;16.25;59.92;100749.38;10190100;29;20044;-74
2023/06/15 06:12:25;;;;;;;10.75;8.10;;;;;;;16.38;59.51;100754.47;10186503;29;20745;-73
2023/06/15 06:17:30;;;;;;;17.20;8.43;;;;;;;16.72;59.38;100752.75;10196555;29;20051;-72
2023/06/15 06:22:53;;;;;;;15.07;8.27;;;;;;;16.98;57.58;100760.13;10182377;29;20040;-72
2023/06/15 06:27:56;;;;;;;15.90;8.63;;;;;;;17.51;56.87;100752.88;10187229;29;20519;-72
2023/06/15 06:33:02;;;;;;;13.35;7.55;;;;;;;18.26;55.86;100763.94;10183963;29;20047;-73
2023/06/15 06:38:05;;;;;;;10.27;6.95;;;;;;;18.85;53.30;100755.75;10183552;29;20044;-73
2023/06/15 06:43:08;;;;;;;11.60;7.55;;;;;;;19.40;51.92;100755.03;10183864;29;20054;-73
2023/06/15 06:48:12;;;;;;;13.23;7.78;;;;;;;19.65;51.61;100756.69;10198892;29;20042;-73
2023/06/15 06:53:15;;;;;;;11.40;6.93;;;;;;;19.74;49.94;100752.06;10202858;29;20095;-73
2023/06/15 06:58:18;;;;;;;15.82;6.65;;;;;;;20.04;50.06;100760.47;10196750;29;20115;-74
2023/06/15 07:03:22;;;;;;;12.30;6.00;;;;;;;19.98;48.55;100759.28;10188705;29;20440;-73
2023/06/15 07:08:25;;;;;;;10.90;5.75;;;;;;;20.15;49.44;100759.22;10192819;29;20075;-73
2023/06/15 07:13:28;;;;;;;8.45;6.68;;;;;;;20.78;47.44;100760.88;10197833;29;20107;-74
2023/06/15 07:18:33;;;;;;;6.32;5.07;;;;;;;21.01;47.37;100759.00;10197097;29;20035;-73
2023/06/15 07:23:36;;;;;;;10.45;5.10;;;;;;;22.57;44.21;100757.22;10198593;29;20042;-73
2023/06/15 07:28:55;;;;;;;13.65;5.30;;;;;;;24.82;39.12;100762.47;10200554;29;20136;-73
2023/06/15 07:33:59;;;;;;;8.90;5.00;;;;;;;26.52;36.85;100757.06;10199994;29;20044;-73
2023/06/15 07:39:02;;;;;;;8.23;5.35;;;;;;;27.53;35.26;100756.09;10201975;29;20036;-73
2023/06/15 07:44:05;;;;;;;7.97;5.10;;;;;;;27.64;35.10;100761.94;10203497;29;20047;-73
2023/06/15 07:49:10;;;;;;;7.80;4.90;;;;;;;27.17;35.24;100759.59;10202861;29;20043;-73
2023/06/15 07:54:12;;;;;;;9.32;5.00;;;;;;;26.72;35.91;100763.31;10199808;29;20082;-73
2023/06/15 07:59:15;;;;;;;8.68;4.40;;;;;;;25.67;36.48;100761.84;10195460;29;20040;-73
2023/06/15 08:04:20;;;;;;;6.72;4.30;;;;;;;24.90;37.03;100754.03;10194786;29;20052;-73
2023/06/15 08:09:23;;;;;;;8.30;3.80;;;;;;;24.62;37.57;100761.59;10195596;29;20039;-73
2023/06/15 08:14:26;;;;;;;6.07;3.50;;;;;;;24.50;35.33;100756.69;10195819;29;20044;-73
2023/06/15 08:19:30;;;;;;;6.43;4.15;;;;;;;24.21;36.19;100754.25;10191337;29;20468;-74
2023/06/15 08:24:33;;;;;;;8.10;4.15;;;;;;;24.61;35.98;100755.25;10190230;29;20495;-73
2023/06/15 08:29:36;;;;;;;8.13;4.03;;;;;;;24.94;34.22;100741.53;10185416;29;20067;-73
2023/06/15 08:34:41;;;;;;;5.93;3.50;;;;;;;24.87;34.06;100745.34;10185474;29;20056;-74
2023/06/15 08:39:44;;;;;;;6.10;4.10;;;;;;;24.62;34.80;100736.88;10189175;29;20036;-73
2023/06/15 08:44:48;;;;;;;6.75;3.63;;;;;;;25.13;34.29;100747.28;10187505;29;20396;-73
2023/06/15 08:49:53;;;;;;;8.45;4.03;;;;;;;25.12;33.97;100731.84;10188417;29;20509;-72
2023/06/15 08:54:58;;;;;;;12.32;3.75;;;;;;;25.27;32.71;100732.47;10185329;29;20031;-72
2023/06/15 09:00:04;;;;;;;3.90;3.35;;;;;;;25.57;33.84;100740.25;10185914;29;20042;-73
2023/06/15 09:05:09;;;;;;;7.20;3.00;;;;;;;25.77;31.41;100737.47;10187556;29;20054;-72
2023/06/15 09:10:14;;;;;;;5.28;3.08;;;;;;;25.99;31.78;100733.38;10196096;29;20404;-74
2023/06/15 09:15:20;;;;;;;5.97;2.92;;;;;;;25.94;31.03;100732.34;10197395;29;20071;-74
2023/06/15 09:20:26;;;;;;;5.65;3.30;;;;;;;26.12;30.53;100737.16;10204648;29;20044;-74
2023/06/15 09:25:31;;;;;;;9.57;2.80;;;;;;;26.42;28.90;100718.16;10190583;29;20044;-74
2023/06/15 09:30:35;;;;;;;4.55;2.88;;;;;;;26.53;29.73;100720.22;10193669;29;20418;-74
2023/06/15 09:35:56;;;;;;;4.85;2.65;;;;;;;26.21;28.87;100719.31;10186491;29;20051;-74
2023/06/15 09:41:03;;;;;;;8.90;3.13;;;;;;;26.50;29.61;100713.22;10204179;29;20032;-74
2023/06/15 09:46:11;;;;;;;6.32;2.72;;;;;;;26.74;29.18;100717.09;10200777;29;20496;-75
2023/06/15 09:51:16;;;;;;;5.10;3.40;;;;;;;27.11;28.52;100711.72;10192031;29;20052;-74
2023/06/15 09:56:21;;;;;;;3.58;2.70;;;;;;;26.70;27.75;100706.72;10199036;29;20043;-75
2023/06/15 10:01:35;;;;;;;3.35;2.75;;;;;;;27.17;27.87;100699.78;10193620;29;20531;-75
2023/06/15 10:06:43;;;;;;;4.72;2.63;;;;;;;27.28;28.02;100705.63;10202371;29;20127;-75
2023/06/15 10:11:49;;;;;;;14.95;3.47;;;;;;;27.07;28.32;100704.13;10195130;29;20040;-76
2023/06/15 10:17:01;;;;;;;3.47;2.97;;;;;;;27.84;27.45;100701.84;10186884;29;20048;-76
2023/06/15 10:22:08;;;;;;;2.80;2.60;;;;;;;28.46;26.09;100708.00;10193423;29;20047;-77
2023/06/15 10:27:11;;;;;;;3.45;3.00;;;;;;;27.89;26.30;100706.66;10192070;29;20467;-76
2023/06/15 10:32:22;;;;;;;5.05;2.90;;;;;;;28.16;26.81;100704.41;10186479;29;20058;-76
2023/06/15 10:37:31;;;;;;;3.50;2.75;;;;;;;28.98;26.02;100698.31;10190660;29;20058;-77
2023/06/15 10:42:43;;;;;;;6.50;3.00;;;;;;;29.30;24.59;100690.53;10197315;29;20659;-77
2023/06/15 10:47:49;;;;;;;7.05;2.85;;;;;;;29.36;23.66;100690.38;10190663;29;20040;-77
2023/06/15 10:52:53;;;;;;;3.78;2.85;;;;;;;29.63;23.24;100694.59;10191680;29;20078;-77
2023/06/15 10:58:15;;;;;;;4.70;3.00;;;;;;;29.39;23.75;100686.28;10191345;29;20098;-77
2023/06/15 11:03:25;;;;;;;6.43;2.90;;;;;;;29.41;22.70;100689.66;10189128;29;20055;-77
2023/06/15 11:08:31;;;;;;;3.63;2.58;;;;;;;30.13;24.37;100686.53;10189041;29;20055;-77
2023/06/15 11:13:34;;;;;;;4.05;2.83;;;;;;;30.85;23.25;100688.66;10185794;29;20047;-77
2023/06/15 11:18:37;;;;;;;6.35;2.85;;;;;;;31.27;22.10;100688.25;10184270;29;20055;-77
2023/06/15 11:23:45;;;;;;;5.88;2.80;;;;;;;30.97;22.45;100687.75;10180870;29;20064;-77
2023/06/15 11:28:48;;;;;;;3.88;2.50;;;;;;;30.65;20.84;100686.38;10201873;29;20078;-78
2023/06/15 11:33:51;;;;;;;4.65;2.67;;;;;;;30.86;22.42;100684.81;10188837;29;20119;-77
2023/06/15 11:38:56;;;;;;;4.40;2.78;;;;;;;31.01;22.09;100667.56;10189836;29;20036;-77
2023/06/15 11:43:59;;;;;;;4.53;2.70;;;;;;;31.40;22.06;100666.75;10187342;29;20055;-77
2023/06/15 11:49:02;;;;;;;7.32;2.70;;;;;;;31.83;21.83;100673.44;10193515;29;20050;-77
2023/06/15 11:54:11;;;;;;;3.28;2.42;;;;;;;32.09;21.92;100680.13;10197197;29;20043;-78
2023/06/15 11:59:15;;;;;;;5.50;3.25;;;;;;;31.65;21.68;100661.56;10209302;29;20042;-79
2023/06/15 12:04:18;;;;;;;3.45;2.70;;;;;;;31.67;22.79;100667.69;10204470;29;20166;-78
2023/06/15 12:09:23;;;;;;;4.70;2.80;;;;;;;31.80;21.71;100669.25;10206189;29;20047;-78
2023/06/15 12:14:26;;;;;;;3.80;2.70;;;;;;;29.99;24.04;100666.56;10197732;29;20123;-78
2023/06/15 12:19:30;;;;;;;5.15;3.00;;;;;;;28.39;24.94;100670.53;10202477;29;20061;-78
2023/06/15 12:24:40;;;;;;;4.68;3.05;;;;;;;29.03;25.61;100668.00;10205166;29;20079;-78
2023/06/15 12:29:43;;;;;;;4.05;2.97;;;;;;;29.20;25.23;100655.16;10195497;29;20094;-78
2023/06/15 12:34:46;;;;;;;3.60;2.85;;;;;;;30.19;23.64;100666.13;10198305;29;20047;-78
2023/06/15 12:39:50;;;;;;;5.40;3.08;;;;;;;31.03;22.38;100648.72;10197659;29;20040;-79
2023/06/15 12:44:56;;;;;;;5.90;2.75;;;;;;;32.16;22.40;100645.50;10195140;29;20067;-77
2023/06/15 12:49:59;;;;;;;4.82;2.75;;;;;;;32.04;21.07;100638.44;10192992;29;20499;-78
2023/06/15 12:55:04;;;;;;;3.90;3.15;;;;;;;31.76;21.73;100634.75;10203050;29;20575;-78
2023/06/15 13:00:08;;;;;;;5.80;3.17;;;;;;;31.67;21.30;100622.44;10193530;29;20051;-78
2023/06/15 13:05:11;;;;;;;5.38;2.85;;;;;;;32.10;21.33;100626.25;10193807;29;20054;-78
2023/06/15 13:10:16;;;;;;;7.82;3.28;;;;;;;32.62;21.48;100623.69;10192104;29;20043;-77
2023/06/15 13:15:20;;;;;;;6.13;3.00;;;;;;;32.14;21.76;100617.13;10206942;29;20052;-78
2023/06/15 13:20:24;;;;;;;5.97;2.95;;;;;;;32.10;22.40;100620.69;10211200;29;20076;-78
2023/06/15 13:25:28;;;;;;;3.85;3.15;;;;;;;32.51;20.86;100610.81;10205862;29;20048;-78
2023/06/15 13:30:31;;;;;;;5.82;2.80;;;;;;;33.01;22.08;100615.09;10208322;29;20054;-78
2023/06/15 13:35:34;;;;;;;3.78;3.45;;;;;;;33.61;21.30;100601.75;10204072;29;20051;-79
2023/06/15 13:40:38;;;;;;;4.55;3.30;;;;;;;33.61;20.33;100595.38;10199956;29;20415;-79
2023/06/15 13:45:41;;;;;;;5.22;3.25;;;;;;;33.36;20.20;100602.50;10199425;29;20119;-79
2023/06/15 13:50:44;;;;;;;5.38;3.58;;;;;;;33.09;21.32;100609.03;10195002;29;20054;-79
2023/06/15 13:55:48;;;;;;;6.53;3.40;;;;;;;32.11;21.91;100605.69;10194764;29;20048;-79
2023/06/15 14:00:51;;;;;;;4.15;3.08;;;;;;;30.99;22.63;100597.63;10194547;29;20071;-78
2023/06/15 14:05:54;;;;;;;4.32;3.40;;;;;;;30.02;23.88;100594.06;10190361;29;20520;-77
2023/06/15 14:10:58;;;;;;;5.13;3.35;;;;;;;31.12;22.84;100593.66;10184544;29;20042;-77
2023/06/15 14:16:01;;;;;;;9.40;3.85;;;;;;;30.38;24.55;100589.16;10185007;29;20424;-78
2023/06/15 14:21:04;;;;;;;6.78;3.58;;;;;;;29.22;24.90;100594.09;10198215;29;20096;-78
2023/06/15 14:26:08;;;;;;;4.53;3.30;;;;;;;30.86;23.29;100582.22;10199272;29;20047;-78
2023/06/15 14:31:11;;;;;;;4.05;3.38;;;;;;;31.82;22.05;100582.94;10201459;29;20475;-78
2023/06/15 14:36:14;;;;;;;7.13;3.33;;;;;;;32.80;21.54;100572.41;10198564;29;20126;-78
2023/06/15 14:41:18;;;;;;;6.47;3.28;;;;;;;33.27;21.37;100566.00;10203590;29;20088;-78
2023/06/15 14:46:21;;;;;;;8.43;3.15;;;;;;;32.92;21.58;100566.66;10202335;29;20605;-78
2023/06/15 14:51:24;;;;;;;5.57;3.40;;;;;;;32.93;22.28;100570.25;10205626;29;20056;-78
2023/06/15 14:56:28;;;;;;;5.93;3.00;;;;;;;31.31;23.56;100570.06;10203765;29;20080;-78
2023/06/15 15:01:31;;;;;;;6.13;3.58;;;;;;;30.55;24.03;100568.94;10198657;29;20036;-79
2023/06/15 15:06:34;;;;;;;5.65;3.70;;;;;;;31.62;22.68;100564.06;10200505;29;20427;-79
2023/06/15 15:11:38;;;;;;;10.05;3.47;;;;;;;32.13;22.48;100562.66;10197707;29;20144;-78
2023/06/15 15:16:41;;;;;;;5.70;3.78;;;;;;;32.63;22.86;100555.03;10190177;29;20054;-78
2023/06/15 15:21:44;;;;;;;4.20;3.13;;;;;;;32.39;22.47;100549.88;10189104;29;20146;-78
2023/06/15 15:26:48;;;;;;;7.18;3.22;;;;;;;32.47;22.71;100544.91;10201038;29;20479;-78
2023/06/15 15:31:51;;;;;;;4.82;3.60;;;;;;;31.98;22.59;100538.38;10199896;29;20046;-79
2023/06/15 15:36:54;;;;;;;5.03;3.33;;;;;;;31.53;24.61;100545.09;10197803;29;20043;-78
2023/06/15 15:41:59;;;;;;;5.47;3.10;;;;;;;31.11;24.22;100534.56;10193862;29;20047;-79
2023/06/15 15:47:02;;;;;;;4.75;3.40;;;;;;;29.31;25.50;100537.28;10199813;29;20483;-77
2023/06/15 15:52:05;;;;;;;6.38;3.92;;;;;;;28.29;26.80;100538.53;10194137;29;20563;-78
2023/06/15 15:57:10;;;;;;;6.78;2.75;;;;;;;27.88;27.75;100547.66;10194889;29;20044;-78
2023/06/15 16:02:13;;;;;;;5.65;3.58;;;;;;;29.71;26.86;100530.91;10207055;29;20082;-75
2023/06/15 16:07:16;;;;;;;3.72;3.10;;;;;;;30.58;26.15;100537.94;10196882;29;20126;-73
2023/06/15 16:12:20;;;;;;;5.63;3.65;;;;;;;31.17;24.69;100535.50;10195614;29;20044;-74
2023/06/15 16:17:23;;;;;;;4.90;3.00;;;;;;;31.31;24.44;100525.69;10199712;29;20042;-74
2023/06/15 16:22:26;;;;;;;5.43;3.10;;;;;;;31.04;24.66;100525.59;10197262;29;20099;-75
2023/06/15 16:27:30;;;;;;;6.38;3.42;;;;;;;32.03;24.14;100534.78;10195879;29;20044;-74
2023/06/15 16:32:33;;;;;;;4.80;3.10;;;;;;;32.99;22.95;100524.66;10196275;29;20407;-74
2023/06/15 16:37:36;;;;;;;6.03;3.63;;;;;;;36.85;19.87;100524.19;10192390;29;20048;-74
2023/06/15 16:42:41;;;;;;;5.78;3.25;;;;;;;38.31;19.06;100515.91;10187680;29;20508;-74
2023/06/15 16:47:44;;;;;;;3.42;3.13;;;;;;;37.99;18.92;100520.38;10185660;29;20052;-73
2023/06/15 16:52:47;;;;;;;4.13;2.92;;;;;;;38.01;18.59;100512.47;10187799;29;20065;-73
2023/06/15 16:57:53;;;;;;;7.53;3.47;;;;;;;35.45;20.17;100522.75;10184068;29;20047;-73
2023/06/15 17:02:56;;;;;;;6.95;3.53;;;;;;;32.41;22.27;100525.41;10185081;29;20044;-73
2023/06/15 17:07:59;;;;;;;6.47;3.38;;;;;;;28.57;25.96;100531.50;10187202;29;20044;-73
2023/06/15 17:13:04;;;;;;;5.28;3.42;;;;;;;27.68;27.26;100545.19;10196738;29;20043;-73
2023/06/15 17:18:06;;;;;;;6.97;3.40;;;;;;;27.10;28.07;100547.38;10196418;29;20147;-73
2023/06/15 17:23:09;;;;;;;5.50;3.30;;;;;;;26.47;28.74;100551.19;10193621;29;20036;-73
2023/06/15 17:28:14;;;;;;;9.98;3.67;;;;;;;26.03;28.98;100544.72;10194681;29;20054;-73
2023/06/15 17:33:16;;;;;;;6.40;2.92;;;;;;;25.93;29.82;100547.13;10194147;29;20047;-74
2023/06/15 17:38:19;;;;;;;5.32;3.22;;;;;;;25.89;29.93;100547.78;10190602;29;20052;-72
2023/06/15 17:43:24;;;;;;;4.22;3.38;;;;;;;25.70;29.92;100550.47;10190985;29;20040;-72
2023/06/15 17:48:26;;;;;;;4.38;3.22;;;;;;;26.49;28.80;100551.81;10188317;29;20127;-73
2023/06/15 17:53:29;;;;;;;7.15;3.20;;;;;;;26.02;29.40;100559.53;10186834;29;20040;-73
2023/06/15 17:58:34;;;;;;;6.18;3.85;;;;;;;25.49;29.87;100553.50;10189340;29;20507;-73
2023/06/15 18:03:39;;;;;;;5.20;3.20;;;;;;;25.16;30.63;100552.56;10184770;29;20155;-73
2023/06/15 18:08:44;;;;;;;7.40;3.55;;;;;;;25.00;30.70;100554.91;10186464;29;20103;-73
2023/06/15 18:13:51;;;;;;;6.38;2.78;;;;;;;24.69;31.78;100570.19;10183946;29;20052;-74
2023/06/15 18:18:54;;;;;;;5.97;3.30;;;;;;;24.41;31.85;100573.16;10189278;29;20586;-73
2023/06/15 18:23:57;;;;;;;5.55;3.40;;;;;;;24.28;32.72;100573.97;10194417;29;20051;-72
2023/06/15 18:29:01;;;;;;;6.45;3.13;;;;;;;24.29;32.80;100579.25;10188267;29;20074;-73
2023/06/15 18:34:04;;;;;;;6.65;2.90;;;;;;;24.19;33.03;100583.44;10196955;29;20032;-72
2023/06/15 18:39:07;;;;;;;6.15;3.00;;;;;;;23.87;33.65;100586.78;10194772;29;20068;-72
2023/06/15 18:44:11;;;;;;;6.28;3.35;;;;;;;23.63;34.36;100590.06;10190300;29;21177;-73
2023/06/15 18:49:15;;;;;;;5.38;3.05;;;;;;;23.45;34.63;100590.63;10186418;29;20040;-73
2023/06/15 18:54:18;;;;;;;8.57;3.10;;;;;;;23.23;34.62;100599.97;10184963;29;20039;-74
2023/06/15 18:59:22;;;;;;;5.07;3.20;;;;;;;23.03;34.71;100591.63;10184209;29;20051;-72
2023/06/15 19:04:25;;;;;;;4.70;3.38;;;;;;;22.92;34.99;100585.66;10187988;29;20507;-74
2023/06/15 19:09:28;;;;;;;4.90;3.15;;;;;;;22.78;35.13;100590.19;10154785;29;1090743;-73
2023/06/15 19:14:35;;;;;;;3.35;2.97;;;;;;;22.63;35.55;100592.22;10190467;29;20040;-72
2023/06/15 19:19:39;;;;;;;6.22;3.45;;;;;;;22.54;36.14;100593.38;10202273;29;20063;-73
2023/06/15 19:24:43;;;;;;;2.88;2.67;;;;;;;22.47;36.40;100601.56;10194925;29;20048;-73
2023/06/15 19:29:48;;;;;;;5.55;3.38;;;;;;;22.46;36.87;100602.59;10196634;29;20397;-72
2023/06/15 19:34:50;;;;;;;5.10;3.08;;;;;;;22.30;37.02;100603.69;10201198;29;20059;-75
2023/06/15 19:39:53;;;;;;;7.38;3.55;;;;;;;22.39;36.70;100609.88;10195190;29;20066;-74
2023/06/15 19:44:57;;;;;;;5.45;3.10;;;;;;;22.39;37.20;100609.03;10194589;29;20428;-74
2023/06/15 19:50:00;;;;;;;5.15;3.92;;;;;;;22.25;37.26;100611.63;10192243;29;20464;-74
2023/06/15 19:55:04;;;;;;;5.40;3.78;;;;;;;22.19;37.36;100614.28;10196258;29;20048;-74
2023/06/15 20:00:09;;;;;;;11.88;4.20;;;;;;;22.09;37.52;100614.63;10187444;29;20043;-73
2023/06/15 20:05:12;;;;;;;6.28;3.70;;;;;;;22.02;38.08;100605.50;10186914;29;20487;-73
2023/06/15 20:10:16;;;;;;;3.28;2.97;;;;;;;21.93;38.35;100606.66;10186117;29;20055;-74
2023/06/15 20:15:21;;;;;;;4.63;3.42;;;;;;;21.79;38.68;100606.50;10185926;29;20051;-76
2023/06/15 20:20:24;;;;;;;4.50;3.00;;;;;;;21.67;38.62;100608.03;10188691;29;20126;-77
2023/06/15 20:25:27;;;;;;;5.13;3.10;;;;;;;21.54;39.14;100607.88;10197414;29;20067;-77
2023/06/15 20:30:31;;;;;;;3.55;3.25;;;;;;;21.53;39.13;100608.88;10207940;29;20044;-77
2023/06/15 20:35:34;;;;;;;5.18;4.00;;;;;;;21.20;39.07;100601.97;10208404;29;20036;-77
2023/06/15 20:40:37;;;;;;;4.03;3.13;;;;;;;21.11;39.50;100610.44;10196808;29;20046;-76
2023/06/15 20:45:41;;;;;;;6.70;3.60;;;;;;;21.02;40.03;100607.75;10212458;29;20060;-79
2023/06/15 20:50:44;;;;;;;5.05;3.70;;;;;;;20.95;39.93;100606.84;10195334;29;20040;-76
2023/06/15 20:55:48;;;;;;;4.78;3.40;;;;;;;20.98;39.98;100606.47;10188927;29;20453;-76
2023/06/15 21:00:52;;;;;;;5.68;4.00;;;;;;;20.85;40.28;100609.00;10194910;29;20499;-77
2023/06/15 21:05:55;;;;;;;6.05;4.07;;;;;;;20.72;40.22;100604.16;10197004;29;20564;-76
2023/06/15 21:10:58;;;;;;;6.20;3.42;;;;;;;20.59;40.42;100611.28;10192517;29;20047;-77
2023/06/15 21:16:05;;;;;;;9.60;3.67;;;;;;;20.42;40.74;100608.69;10197093;29;20534;-77
2023/06/15 21:21:09;;;;;;;3.75;3.45;;;;;;;20.34;41.22;100604.16;10188221;29;20040;-77
2023/06/15 21:26:12;;;;;;;4.82;3.70;;;;;;;20.24;41.34;100599.94;10189905;29;20059;-77
2023/06/15 21:31:16;;;;;;;3.55;3.20;;;;;;;20.13;41.74;100606.69;10190348;29;20155;-76
2023/06/15 21:36:22;;;;;;;4.55;3.83;;;;;;;20.02;41.65;100607.97;10187210;29;20449;-77
2023/06/15 21:41:28;;;;;;;4.07;2.95;;;;;;;19.81;41.85;100608.59;10189296;29;20415;-78
2023/06/15 21:46:33;;;;;;;5.00;3.55;;;;;;;19.65;42.27;100605.97;10193569;29;20058;-80
2023/06/15 21:51:35;;;;;;;12.45;3.70;;;;;;;19.27;43.23;100608.47;10194363;29;20044;-77
2023/06/15 21:56:38;;;;;;;5.20;3.83;;;;;;;18.85;44.25;100606.06;10201600;29;20071;-77
2023/06/15 22:01:42;;;;;;;5.15;3.40;;;;;;;18.85;44.50;100603.34;10188031;29;20503;-77
2023/06/15 22:06:45;;;;;;;4.85;3.75;;;;;;;18.93;44.06;100596.00;10196574;29;20464;-76
2023/06/15 22:11:48;;;;;;;6.55;4.30;;;;;;;18.86;nan;100594.16;10194803;29;20090;-77
2023/06/15 22:16:52;;;;;;;4.38;3.67;;;;;;;18.51;44.92;100597.06;10194316;29;20058;-77
2023/06/15 22:21:55;;;;;;;9.02;3.53;;;;;;;18.24;45.60;100600.97;10189273;29;20051;-77
2023/06/15 22:26:58;;;;;;;6.32;3.78;;;;;;;18.32;45.41;100600.09;10183947;29;20191;-77
2023/06/15 22:32:06;;;;;;;5.05;4.13;;;;;;;18.32;45.18;100600.09;10183999;29;20048;-77
2023/06/15 22:37:09;;;;;;;5.95;3.53;;;;;;;18.49;45.24;100604.53;10181198;29;20123;-77
2023/06/15 22:42:12;;;;;;;6.32;3.58;;;;;;;18.47;45.11;100600.28;10182774;29;20055;-76
2023/06/15 22:47:18;;;;;;;4.28;3.88;;;;;;;18.50;45.00;100597.22;10183706;29;20043;-76
2023/06/15 22:52:22;;;;;;;5.82;4.13;;;;;;;18.30;45.04;100605.75;10185149;29;20049;-76
2023/06/15 22:57:25;;;;;;;7.53;3.80;;;;;;;18.31;45.41;100601.97;10184397;29;20429;-77
2023/06/15 23:02:29;;;;;;;4.72;3.72;;;;;;;18.34;45.33;100598.94;10184921;29;20448;-76
2023/06/15 23:07:31;;;;;;;5.15;3.38;;;;;;;;;;10186100;29;20048;-76
2023/06/15 23:12:34;;;;;;;7.45;3.80;;;;;;;17.54;46.88;100589.59;10185336;29;20512;-76
2023/06/15 23:17:40;;;;;;;9.13;4.00;;;;;;;17.53;46.99;100594.19;10187678;29;20099;-76